LOT6PK EPWA-EPSC
Flight info
| Callsign | LOT6PK |
|---|---|
| Flight time | 0h 48m |
| Altitude | 36000 |
| Route | LOLSI DCT DIBLO DCT INDIG DCT FORFE DCT ZAWIK |
| Aircraft | A320/M-SDE3FGHIRWY/LB1 |
Departure
| Time | 2026-04-24 19:04 |
|---|---|
| Airport | Warsaw Chopin Airport (EPWA) |
Arrival
| Time | 2026-04-24 19:52 |
|---|---|
| Airport | Solidarity Szczecin–Goleniów Airport (EPSC) |
| Time | Latitude | Longitude | Altitude | Speed | Heading |
|---|---|---|---|---|---|
| 2026-04-24 18:54 | 52.17059 | 20.96926 | 339 ft | 0 kts | 152° |
| 2026-04-24 18:56 | 52.17040 | 20.96943 | 337 ft | 0 kts | 151° |
| 2026-04-24 18:56 | 52.17039 | 20.96944 | 337 ft | 2 kts | 151° |
| 2026-04-24 18:56 | 52.16961 | 20.97013 | 339 ft | 17 kts | 152° |
| 2026-04-24 18:57 | 52.16860 | 20.97100 | 335 ft | 16 kts | 152° |
| 2026-04-24 18:57 | 52.16765 | 20.97183 | 337 ft | 15 kts | 149° |
| 2026-04-24 18:57 | 52.16681 | 20.97254 | 339 ft | 13 kts | 152° |
| 2026-04-24 18:57 | 52.16605 | 20.97321 | 338 ft | 12 kts | 151° |
| 2026-04-24 18:58 | 52.16555 | 20.97430 | 335 ft | 13 kts | 110° |
| 2026-04-24 18:58 | 52.16521 | 20.97557 | 336 ft | 11 kts | 115° |
| 2026-04-24 18:58 | 52.16490 | 20.97668 | 337 ft | 10 kts | 114° |
| 2026-04-24 18:58 | 52.16483 | 20.97695 | 337 ft | 0 kts | 114° |
| 2026-04-24 18:59 | 52.16468 | 20.97747 | 337 ft | 7 kts | 114° |
| 2026-04-24 18:59 | 52.16441 | 20.97800 | 339 ft | 6 kts | 147° |
| 2026-04-24 18:59 | 52.16408 | 20.97797 | 337 ft | 4 kts | 200° |
| 2026-04-24 18:59 | 52.16393 | 20.97788 | 339 ft | 0 kts | 202° |
| 2026-04-24 19:00 | 52.16390 | 20.97785 | 339 ft | 4 kts | 202° |
| 2026-04-24 19:00 | 52.16351 | 20.97759 | 339 ft | 6 kts | 204° |
| 2026-04-24 19:00 | 52.16318 | 20.97725 | 337 ft | 5 kts | 223° |
| 2026-04-24 19:00 | 52.16309 | 20.97675 | 335 ft | 4 kts | 270° |
| 2026-04-24 19:01 | 52.16317 | 20.97635 | 335 ft | 3 kts | 291° |
| 2026-04-24 19:01 | 52.16317 | 20.97634 | 335 ft | 0 kts | 291° |
| 2026-04-24 19:01 | 52.16317 | 20.97630 | 336 ft | 1 kts | 286° |
| 2026-04-24 19:01 | 52.16318 | 20.97629 | 336 ft | 0 kts | 293° |
| 2026-04-24 19:03 | 52.16319 | 20.97626 | 336 ft | 3 kts | 293° |
| 2026-04-24 19:03 | 52.16372 | 20.97453 | 337 ft | 39 kts | 300° |
| 2026-04-24 19:04 | 52.16592 | 20.96654 | 337 ft | 111 kts | 294° |
| 2026-04-24 19:04 | 52.16988 | 20.95216 | 390 ft | 160 kts | 294° |
| 2026-04-24 19:04 | 52.17441 | 20.93604 | 1168 ft | 153 kts | 295° |
| 2026-04-24 19:04 | 52.17890 | 20.92022 | 1874 ft | 159 kts | 296° |
| 2026-04-24 19:05 | 52.18304 | 20.90232 | 2246 ft | 183 kts | 279° |
| 2026-04-24 19:05 | 52.18274 | 20.88032 | 2617 ft | 208 kts | 268° |
| 2026-04-24 19:05 | 52.18134 | 20.85534 | 3027 ft | 234 kts | 266° |
| 2026-04-24 19:05 | 52.18077 | 20.82799 | 3739 ft | 247 kts | 278° |
| 2026-04-24 19:06 | 52.18465 | 20.80006 | 4530 ft | 258 kts | 288° |
| 2026-04-24 19:06 | 52.18924 | 20.77198 | 5577 ft | 258 kts | 285° |
| 2026-04-24 19:06 | 52.19329 | 20.74341 | 6030 ft | 261 kts | 284° |
| 2026-04-24 19:06 | 52.19611 | 20.71432 | 7055 ft | 262 kts | 272° |
| 2026-04-24 19:07 | 52.19479 | 20.68429 | 7974 ft | 268 kts | 267° |
| 2026-04-24 19:07 | 52.19298 | 20.65381 | 8873 ft | 273 kts | 266° |
| 2026-04-24 19:07 | 52.19170 | 20.63323 | 9454 ft | 277 kts | 266° |
| 2026-04-24 19:07 | 52.18900 | 20.59048 | 10338 ft | 295 kts | 266° |
| 2026-04-24 19:08 | 52.18680 | 20.55592 | 10697 ft | 316 kts | 266° |
| 2026-04-24 19:08 | 52.18447 | 20.51976 | 11378 ft | 324 kts | 265° |
| 2026-04-24 19:08 | 52.18207 | 20.48296 | 12185 ft | 328 kts | 265° |
| 2026-04-24 19:08 | 52.17964 | 20.44573 | 13009 ft | 332 kts | 266° |
| 2026-04-24 19:09 | 52.17719 | 20.40812 | 13819 ft | 336 kts | 266° |
| 2026-04-24 19:09 | 52.17473 | 20.37014 | 14538 ft | 339 kts | 266° |
| 2026-04-24 19:09 | 52.17226 | 20.33184 | 15258 ft | 342 kts | 266° |
| 2026-04-24 19:09 | 52.16976 | 20.29312 | 15967 ft | 345 kts | 266° |
| 2026-04-24 19:10 | 52.16725 | 20.25464 | 16677 ft | 348 kts | 266° |
| 2026-04-24 19:10 | 52.16466 | 20.21531 | 17385 ft | 351 kts | 266° |
| 2026-04-24 19:10 | 52.16203 | 20.17556 | 18087 ft | 354 kts | 267° |
| 2026-04-24 19:10 | 52.15937 | 20.13547 | 18722 ft | 357 kts | 267° |
| 2026-04-24 19:11 | 52.15664 | 20.09513 | 19354 ft | 359 kts | 267° |
| 2026-04-24 19:11 | 52.15388 | 20.05464 | 20000 ft | 361 kts | 267° |
| 2026-04-24 19:11 | 52.15110 | 20.01389 | 20647 ft | 363 kts | 267° |
| 2026-04-24 19:11 | 52.14831 | 19.97299 | 21290 ft | 365 kts | 267° |
| 2026-04-24 19:12 | 52.14551 | 19.93182 | 21940 ft | 367 kts | 268° |
| 2026-04-24 19:12 | 52.14268 | 19.89051 | 22571 ft | 369 kts | 268° |
| 2026-04-24 19:12 | 52.13980 | 19.84884 | 23202 ft | 371 kts | 268° |
| 2026-04-24 19:12 | 52.13688 | 19.80701 | 23768 ft | 373 kts | 268° |
| 2026-04-24 19:13 | 52.13493 | 19.77917 | 24094 ft | 375 kts | 268° |
| 2026-04-24 19:13 | 52.13094 | 19.72261 | 24753 ft | 377 kts | 268° |
| 2026-04-24 19:13 | 52.12793 | 19.68005 | 25227 ft | 379 kts | 268° |
| 2026-04-24 19:13 | 52.12489 | 19.63732 | 25690 ft | 381 kts | 268° |
| 2026-04-24 19:14 | 52.12184 | 19.59437 | 26146 ft | 383 kts | 268° |
| 2026-04-24 19:14 | 52.11876 | 19.55116 | 26596 ft | 385 kts | 268° |
| 2026-04-24 19:14 | 52.11670 | 19.52244 | 26884 ft | 387 kts | 268° |
| 2026-04-24 19:14 | 52.11533 | 19.50353 | 27078 ft | 388 kts | 268° |
| 2026-04-24 19:15 | 52.11214 | 19.45987 | 27504 ft | 390 kts | 268° |
| 2026-04-24 19:15 | 52.10894 | 19.41594 | 27925 ft | 392 kts | 268° |
| 2026-04-24 19:15 | 52.10570 | 19.37176 | 28337 ft | 394 kts | 268° |
| 2026-04-24 19:15 | 52.10242 | 19.32739 | 28736 ft | 396 kts | 268° |
| 2026-04-24 19:16 | 52.09580 | 19.23801 | 29517 ft | 400 kts | 269° |
| 2026-04-24 19:16 | 52.09243 | 19.19294 | 29896 ft | 402 kts | 269° |
| 2026-04-24 19:16 | 52.08904 | 19.14758 | 30221 ft | 405 kts | 268° |
| 2026-04-24 19:17 | 52.08560 | 19.10216 | 30525 ft | 406 kts | 269° |
| 2026-04-24 19:17 | 52.08261 | 19.05638 | 30823 ft | 404 kts | 274° |
| 2026-04-24 19:17 | 52.08564 | 19.01154 | 31105 ft | 397 kts | 289° |
| 2026-04-24 19:17 | 52.09624 | 18.97051 | 31381 ft | 393 kts | 302° |
| 2026-04-24 19:18 | 52.11044 | 18.93242 | 31658 ft | 394 kts | 303° |
| 2026-04-24 19:18 | 52.12473 | 18.89435 | 32014 ft | 394 kts | 303° |
| 2026-04-24 19:18 | 52.13895 | 18.85644 | 32425 ft | 392 kts | 303° |
| 2026-04-24 19:18 | 52.15310 | 18.81858 | 32825 ft | 390 kts | 303° |
| 2026-04-24 19:19 | 52.16717 | 18.78084 | 33218 ft | 389 kts | 303° |
| 2026-04-24 19:19 | 52.18098 | 18.74371 | 33603 ft | 388 kts | 302° |
| 2026-04-24 19:19 | 52.19493 | 18.70613 | 33991 ft | 387 kts | 302° |
| 2026-04-24 19:19 | 52.20881 | 18.66859 | 34325 ft | 386 kts | 302° |
| 2026-04-24 19:20 | 52.21816 | 18.64331 | 34537 ft | 385 kts | 302° |
| 2026-04-24 19:20 | 52.23646 | 18.59381 | 34933 ft | 385 kts | 302° |
| 2026-04-24 19:20 | 52.25024 | 18.55639 | 35217 ft | 385 kts | 302° |
| 2026-04-24 19:20 | 52.26401 | 18.51899 | 35502 ft | 384 kts | 302° |
| 2026-04-24 19:21 | 52.27780 | 18.48160 | 35767 ft | 384 kts | 302° |
| 2026-04-24 19:21 | 52.29159 | 18.44421 | 35959 ft | 384 kts | 302° |
| 2026-04-24 19:21 | 52.31878 | 18.37000 | 36010 ft | 378 kts | 302° |
| 2026-04-24 19:22 | 52.34565 | 18.29624 | 36004 ft | 377 kts | 302° |
| 2026-04-24 19:22 | 52.37242 | 18.22256 | 36007 ft | 377 kts | 302° |
| 2026-04-24 19:23 | 52.39925 | 18.14879 | 36010 ft | 377 kts | 302° |
| 2026-04-24 19:23 | 52.42605 | 18.07488 | 36016 ft | 377 kts | 302° |
| 2026-04-24 19:24 | 52.45280 | 18.00084 | 36015 ft | 377 kts | 302° |
| 2026-04-24 19:24 | 52.47954 | 17.92664 | 36017 ft | 377 kts | 301° |
| 2026-04-24 19:25 | 52.50620 | 17.85240 | 36018 ft | 378 kts | 301° |
| 2026-04-24 19:25 | 52.53263 | 17.77853 | 36019 ft | 378 kts | 301° |
| 2026-04-24 19:26 | 52.55919 | 17.70404 | 36021 ft | 378 kts | 301° |
| 2026-04-24 19:26 | 52.58572 | 17.62940 | 36023 ft | 378 kts | 301° |
| 2026-04-24 19:27 | 52.61220 | 17.55464 | 35999 ft | 379 kts | 301° |
| 2026-04-24 19:27 | 52.63884 | 17.47925 | 35998 ft | 381 kts | 301° |
| 2026-04-24 19:28 | 52.65214 | 17.44149 | 35877 ft | 383 kts | 301° |
| 2026-04-24 19:28 | 52.66565 | 17.40319 | 34752 ft | 392 kts | 301° |
| 2026-04-24 19:28 | 52.67945 | 17.36400 | 33810 ft | 397 kts | 301° |
| 2026-04-24 19:28 | 52.69322 | 17.32477 | 33050 ft | 394 kts | 301° |
| 2026-04-24 19:29 | 52.72028 | 17.24744 | 31585 ft | 385 kts | 301° |
| 2026-04-24 19:29 | 52.73358 | 17.20946 | 30985 ft | 381 kts | 301° |
| 2026-04-24 19:29 | 52.74673 | 17.17186 | 30496 ft | 375 kts | 301° |
| 2026-04-24 19:30 | 52.75964 | 17.13484 | 30033 ft | 369 kts | 301° |
| 2026-04-24 19:30 | 52.77216 | 17.09884 | 29556 ft | 363 kts | 301° |
| 2026-04-24 19:30 | 52.78455 | 17.06309 | 29122 ft | 356 kts | 301° |
| 2026-04-24 19:30 | 52.79672 | 17.02797 | 28698 ft | 349 kts | 301° |
| 2026-04-24 19:31 | 52.80864 | 16.99352 | 28297 ft | 342 kts | 301° |
| 2026-04-24 19:31 | 52.82036 | 16.95959 | 27903 ft | 337 kts | 301° |
| 2026-04-24 19:31 | 52.83190 | 16.92625 | 27523 ft | 332 kts | 301° |
| 2026-04-24 19:31 | 52.84329 | 16.89333 | 27150 ft | 326 kts | 301° |
| 2026-04-24 19:32 | 52.85444 | 16.86097 | 26785 ft | 321 kts | 301° |
| 2026-04-24 19:32 | 52.86541 | 16.82908 | 26416 ft | 316 kts | 301° |
| 2026-04-24 19:32 | 52.87621 | 16.79766 | 26055 ft | 312 kts | 301° |
| 2026-04-24 19:32 | 52.88686 | 16.76665 | 25691 ft | 307 kts | 301° |
| 2026-04-24 19:33 | 52.89381 | 16.74638 | 25442 ft | 305 kts | 301° |
| 2026-04-24 19:33 | 52.90423 | 16.71595 | 25086 ft | 303 kts | 301° |
| 2026-04-24 19:33 | 52.91463 | 16.68563 | 24712 ft | 302 kts | 301° |
| 2026-04-24 19:33 | 52.92834 | 16.64567 | 24208 ft | 300 kts | 301° |
| 2026-04-24 19:34 | 52.93861 | 16.61561 | 23827 ft | 299 kts | 301° |
| 2026-04-24 19:34 | 52.94883 | 16.58556 | 23409 ft | 298 kts | 301° |
| 2026-04-24 19:34 | 52.95570 | 16.56530 | 23123 ft | 297 kts | 301° |
| 2026-04-24 19:34 | 52.96582 | 16.53543 | 22729 ft | 296 kts | 301° |
| 2026-04-24 19:35 | 52.97590 | 16.50580 | 22349 ft | 295 kts | 301° |
| 2026-04-24 19:35 | 52.98593 | 16.47625 | 21964 ft | 293 kts | 301° |
| 2026-04-24 19:35 | 52.99573 | 16.44724 | 21593 ft | 292 kts | 301° |
| 2026-04-24 19:35 | 53.00564 | 16.41791 | 21222 ft | 290 kts | 300° |
| 2026-04-24 19:36 | 53.01551 | 16.38876 | 20852 ft | 289 kts | 300° |
| 2026-04-24 19:36 | 53.02531 | 16.35977 | 20487 ft | 287 kts | 300° |
| 2026-04-24 19:36 | 53.03507 | 16.33086 | 20120 ft | 286 kts | 300° |
| 2026-04-24 19:36 | 53.04475 | 16.30211 | 19755 ft | 285 kts | 300° |
| 2026-04-24 19:37 | 53.05442 | 16.27339 | 19396 ft | 283 kts | 300° |
| 2026-04-24 19:37 | 53.06399 | 16.24491 | 19039 ft | 282 kts | 300° |
| 2026-04-24 19:37 | 53.07355 | 16.21643 | 18691 ft | 281 kts | 300° |
| 2026-04-24 19:37 | 53.08305 | 16.18813 | 18327 ft | 280 kts | 300° |
| 2026-04-24 19:38 | 53.09254 | 16.15983 | 17938 ft | 279 kts | 300° |
| 2026-04-24 19:38 | 53.10195 | 16.13176 | 17587 ft | 277 kts | 300° |
| 2026-04-24 19:38 | 53.11130 | 16.10380 | 17244 ft | 277 kts | 300° |
| 2026-04-24 19:38 | 53.12086 | 16.07519 | 16892 ft | 285 kts | 300° |
| 2026-04-24 19:39 | 53.13050 | 16.04627 | 16535 ft | 286 kts | 300° |
| 2026-04-24 19:39 | 53.14009 | 16.01737 | 16186 ft | 285 kts | 300° |
| 2026-04-24 19:39 | 53.14952 | 15.98895 | 15837 ft | 284 kts | 300° |
| 2026-04-24 19:39 | 53.15904 | 15.96029 | 15492 ft | 283 kts | 300° |
| 2026-04-24 19:40 | 53.16859 | 15.93156 | 15150 ft | 282 kts | 300° |
| 2026-04-24 19:40 | 53.17805 | 15.90306 | 14805 ft | 281 kts | 300° |
| 2026-04-24 19:40 | 53.18748 | 15.87469 | 14463 ft | 279 kts | 300° |
| 2026-04-24 19:40 | 53.19688 | 15.84638 | 14114 ft | 281 kts | 300° |
| 2026-04-24 19:41 | 53.20640 | 15.81761 | 13757 ft | 284 kts | 300° |
| 2026-04-24 19:41 | 53.21591 | 15.78880 | 13380 ft | 283 kts | 300° |
| 2026-04-24 19:41 | 53.22538 | 15.76003 | 13023 ft | 282 kts | 300° |
| 2026-04-24 19:41 | 53.23481 | 15.73137 | 12668 ft | 281 kts | 301° |
| 2026-04-24 19:42 | 53.24420 | 15.70280 | 12311 ft | 280 kts | 301° |
| 2026-04-24 19:42 | 53.25353 | 15.67433 | 11983 ft | 277 kts | 301° |
| 2026-04-24 19:42 | 53.26271 | 15.64625 | 11610 ft | 276 kts | 301° |
| 2026-04-24 19:42 | 53.27187 | 15.61820 | 11240 ft | 274 kts | 301° |
| 2026-04-24 19:43 | 53.28095 | 15.59041 | 10877 ft | 272 kts | 301° |
| 2026-04-24 19:43 | 53.29000 | 15.56271 | 10509 ft | 270 kts | 301° |
| 2026-04-24 19:43 | 53.29898 | 15.53525 | 10144 ft | 269 kts | 301° |
| 2026-04-24 19:43 | 53.30890 | 15.50901 | 9753 ft | 266 kts | 306° |
| 2026-04-24 19:44 | 53.31932 | 15.48343 | 9324 ft | 266 kts | 306° |
| 2026-04-24 19:44 | 53.32965 | 15.45796 | 8924 ft | 264 kts | 306° |
| 2026-04-24 19:44 | 53.33975 | 15.43295 | 8529 ft | 261 kts | 306° |
| 2026-04-24 19:44 | 53.34987 | 15.40790 | 8136 ft | 258 kts | 306° |
| 2026-04-24 19:45 | 53.35988 | 15.38309 | 7750 ft | 256 kts | 306° |
| 2026-04-24 19:45 | 53.36964 | 15.35887 | 7369 ft | 245 kts | 306° |
| 2026-04-24 19:45 | 53.37891 | 15.33587 | 7014 ft | 232 kts | 306° |
| 2026-04-24 19:45 | 53.38774 | 15.31397 | 6674 ft | 221 kts | 306° |
| 2026-04-24 19:46 | 53.39624 | 15.29285 | 6326 ft | 214 kts | 305° |
| 2026-04-24 19:46 | 53.40443 | 15.27249 | 5991 ft | 211 kts | 305° |
| 2026-04-24 19:46 | 53.41267 | 15.25202 | 5666 ft | 212 kts | 305° |
| 2026-04-24 19:46 | 53.42087 | 15.23160 | 5345 ft | 211 kts | 304° |
| 2026-04-24 19:47 | 53.42905 | 15.21125 | 5018 ft | 210 kts | 304° |
| 2026-04-24 19:47 | 53.43719 | 15.19098 | 4702 ft | 209 kts | 304° |
| 2026-04-24 19:47 | 53.44546 | 15.17101 | 4375 ft | 208 kts | 309° |
| 2026-04-24 19:47 | 53.45505 | 15.15255 | 3939 ft | 212 kts | 310° |
| 2026-04-24 19:48 | 53.46471 | 15.13393 | 3606 ft | 209 kts | 310° |
| 2026-04-24 19:48 | 53.47400 | 15.11606 | 3315 ft | 196 kts | 310° |
| 2026-04-24 19:48 | 53.49060 | 15.08414 | 2826 ft | 171 kts | 310° |
| 2026-04-24 19:49 | 53.50589 | 15.05467 | 2378 ft | 168 kts | 309° |
| 2026-04-24 19:49 | 53.52111 | 15.02533 | 1940 ft | 159 kts | 310° |
| 2026-04-24 19:50 | 53.54013 | 14.98861 | 1338 ft | 128 kts | 308° |
| 2026-04-24 19:50 | 53.54592 | 14.97740 | 1162 ft | 126 kts | 309° |
| 2026-04-24 19:51 | 53.55746 | 14.95508 | 802 ft | 126 kts | 309° |
| 2026-04-24 19:51 | 53.56320 | 14.94396 | 630 ft | 126 kts | 309° |
| 2026-04-24 19:52 | 53.57478 | 14.92189 | 323 ft | 126 kts | 304° |
| 2026-04-24 19:52 | 53.58043 | 14.91071 | 181 ft | 124 kts | 306° |
| 2026-04-24 19:52 | 53.58530 | 14.90073 | 147 ft | 94 kts | 314° |
| 2026-04-24 19:52 | 53.58881 | 14.89371 | 140 ft | 49 kts | 308° |
| 2026-04-24 19:53 | 53.59029 | 14.89138 | 136 ft | 10 kts | 320° |
| 2026-04-24 19:53 | 53.59112 | 14.89173 | 135 ft | 12 kts | 40° |
| 2026-04-24 19:53 | 53.59228 | 14.89242 | 132 ft | 8 kts | 37° |
| 2026-04-24 19:54 | 53.59273 | 14.89309 | 128 ft | 8 kts | 40° |
| 2026-04-24 19:54 | 53.59280 | 14.89319 | 129 ft | 1 kts | 40° |
| 2026-04-24 19:54 | 53.59289 | 14.89331 | 126 ft | 0 kts | 40° |